createdAt,value
2022-09-13T00:01:20.559Z,25.60
2022-09-13T00:03:49.068Z,25.57
2022-09-13T00:06:20.143Z,25.57
2022-09-13T00:08:49.779Z,25.57
2022-09-13T00:11:22.022Z,25.60
2022-09-13T00:13:51.239Z,25.63
2022-09-13T00:16:22.156Z,25.64
2022-09-13T00:18:50.829Z,25.65
2022-09-13T00:21:21.233Z,25.69
2022-09-13T00:23:52.896Z,25.72
2022-09-13T00:26:24.897Z,25.75
2022-09-13T00:28:57.011Z,25.79
2022-09-13T00:31:28.669Z,25.82
2022-09-13T00:33:59.568Z,25.84
2022-09-13T00:36:28.402Z,25.85
2022-09-13T00:38:56.823Z,25.88
2022-09-13T00:41:25.482Z,25.92
2022-09-13T00:44:03.276Z,25.96
2022-09-13T00:46:31.683Z,25.98
2022-09-13T00:49:21.550Z,26.00
2022-09-13T00:51:58.967Z,26.03
2022-09-13T00:54:36.406Z,26.06
2022-09-13T00:57:06.901Z,26.08
2022-09-13T00:59:47.116Z,26.11
2022-09-13T01:02:16.643Z,26.13
2022-09-13T01:04:46.178Z,26.15
2022-09-13T01:07:18.691Z,26.18
2022-09-13T01:09:51.704Z,26.23
2022-09-13T01:12:57.149Z,26.25
2022-09-13T01:15:25.599Z,26.29
2022-09-13T01:17:57.171Z,26.32
2022-09-13T01:20:45.849Z,26.35
2022-09-13T01:23:32.616Z,26.39
2022-09-13T01:26:31.226Z,26.45
2022-09-13T01:29:01.145Z,26.52
2022-09-13T01:31:36.795Z,26.57
2022-09-13T01:34:14.777Z,26.57
2022-09-13T01:37:01.702Z,26.59
2022-09-13T01:39:56.633Z,26.63
2022-09-13T01:42:50.332Z,26.66
2022-09-13T01:45:37.905Z,26.70
2022-09-13T01:48:28.904Z,26.72
2022-09-13T01:51:14.867Z,26.75
2022-09-13T01:53:58.394Z,26.78
2022-09-13T01:56:40.793Z,26.82
2022-09-13T01:59:20.948Z,26.85
2022-09-13T02:02:26.333Z,26.90
2022-09-13T02:05:01.125Z,26.92
2022-09-13T02:07:40.339Z,26.95
2022-09-13T02:10:20.597Z,26.98
2022-09-13T02:12:52.422Z,27.05
2022-09-13T02:15:36.012Z,27.07
2022-09-13T02:18:27.371Z,27.13
2022-09-13T02:21:02.354Z,27.19
2022-09-13T02:23:37.767Z,27.22
2022-09-13T02:26:08.115Z,27.25
2022-09-13T02:28:46.548Z,27.29
2022-09-13T02:31:21.497Z,27.34
2022-09-13T02:33:57.202Z,27.39
2022-09-13T02:36:30.806Z,27.39
2022-09-13T02:39:03.938Z,27.44
2022-09-13T02:41:37.173Z,27.51
2022-09-13T02:44:34.231Z,27.52
2022-09-13T02:47:23.710Z,27.55
2022-09-13T02:50:04.264Z,27.53
2022-09-13T02:53:04.736Z,27.58
2022-09-13T02:56:00.918Z,27.57
2022-09-13T02:58:44.771Z,27.55
2022-09-13T03:01:13.959Z,27.58
2022-09-13T03:03:42.762Z,27.58
2022-09-13T03:06:11.385Z,27.61
2022-09-13T03:08:40.146Z,27.63
2022-09-13T03:11:27.122Z,27.69
2022-09-13T03:14:38.907Z,27.72
2022-09-13T03:17:26.422Z,27.75
2022-09-13T03:20:09.073Z,27.80
2022-09-13T03:22:58.787Z,27.87
2022-09-13T03:25:49.972Z,27.97
2022-09-13T03:28:24.171Z,27.99
2022-09-13T03:31:05.865Z,28.04
2022-09-13T03:33:53.390Z,28.09
2022-09-13T03:36:41.938Z,28.10
2022-09-13T03:39:44.112Z,28.12
2022-09-13T03:42:35.928Z,28.14
2022-09-13T03:45:06.755Z,28.13
2022-09-13T03:47:38.092Z,28.12
2022-09-13T03:50:10.466Z,28.14
2022-09-13T03:52:42.187Z,28.19
2022-09-13T03:55:12.938Z,28.26
2022-09-13T03:57:41.493Z,28.28
2022-09-13T04:00:11.355Z,28.33
2022-09-13T04:02:39.801Z,28.32
2022-09-13T04:05:08.748Z,28.34
2022-09-13T04:07:37.252Z,28.38
2022-09-13T04:10:06.079Z,28.41
2022-09-13T04:12:34.594Z,28.47
2022-09-13T04:15:03.003Z,28.50
2022-09-13T04:17:31.448Z,28.57
2022-09-13T04:20:00.161Z,28.60
2022-09-13T04:22:28.664Z,28.67
2022-09-13T04:25:01.486Z,28.73
2022-09-13T04:27:30.879Z,28.77
2022-09-13T04:29:59.354Z,28.82
2022-09-13T04:32:27.762Z,28.88
2022-09-13T04:34:56.468Z,28.93
2022-09-13T04:37:25.025Z,29.02
2022-09-13T04:39:54.629Z,29.05
2022-09-13T04:42:23.105Z,29.06
2022-09-13T04:44:51.591Z,29.06
2022-09-13T04:47:20.585Z,29.08
2022-09-13T04:49:49.652Z,29.09
2022-09-13T04:52:18.040Z,29.15
2022-09-13T04:54:46.577Z,29.17
2022-09-13T04:57:17.640Z,29.21
2022-09-13T04:59:46.211Z,29.26
2022-09-13T05:02:14.870Z,29.29
2022-09-13T05:04:43.404Z,29.33
2022-09-13T05:07:11.912Z,29.37
2022-09-13T05:09:40.705Z,29.39
2022-09-13T05:12:09.455Z,29.40
2022-09-13T05:14:38.027Z,29.45
2022-09-13T05:17:06.507Z,29.46
2022-09-13T05:19:36.059Z,29.49
2022-09-13T05:22:04.836Z,29.52
2022-09-13T05:24:34.075Z,29.53
2022-09-13T05:27:02.587Z,29.57
2022-09-13T05:29:31.123Z,29.59
2022-09-13T05:31:59.792Z,29.62
2022-09-13T05:34:28.250Z,29.62
2022-09-13T05:36:56.721Z,29.64
2022-09-13T05:39:48.382Z,29.65
2022-09-13T05:42:13.746Z,29.68
2022-09-13T05:44:42.214Z,29.72
2022-09-13T05:47:10.829Z,29.73
2022-09-13T05:49:56.695Z,29.78
2022-09-13T05:52:27.781Z,29.84
2022-09-13T05:54:56.247Z,29.87
2022-09-13T05:57:24.732Z,29.89
2022-09-13T05:59:53.158Z,29.91
2022-09-13T06:02:21.655Z,29.95
2022-09-13T06:04:51.871Z,29.97
2022-09-13T06:07:20.395Z,29.98
2022-09-13T06:09:49.173Z,29.99
2022-09-13T06:12:17.689Z,30.03
2022-09-13T06:14:46.175Z,30.03
2022-09-13T06:17:16.133Z,30.08
2022-09-13T06:19:45.536Z,30.08
2022-09-13T06:22:14.058Z,30.10
2022-09-13T06:24:42.624Z,30.13
2022-09-13T06:27:13.869Z,30.19
2022-09-13T06:29:42.299Z,30.19
2022-09-13T06:32:11.130Z,30.22
2022-09-13T06:34:39.570Z,30.23
2022-09-13T06:37:08.048Z,30.25
2022-09-13T06:39:36.592Z,30.25
2022-09-13T06:42:05.518Z,30.26
2022-09-13T06:44:33.935Z,30.28
2022-09-13T06:47:02.380Z,30.30
2022-09-13T06:49:32.526Z,30.34
2022-09-13T06:52:01.170Z,30.32
2022-09-13T06:54:30.260Z,30.34
2022-09-13T06:56:58.754Z,30.35
2022-09-13T06:59:27.398Z,30.36
2022-09-13T07:01:55.828Z,30.36
2022-09-13T07:04:24.832Z,30.38
2022-09-13T07:06:53.383Z,30.39
2022-09-13T07:09:23.443Z,30.42
2022-09-13T07:11:54.730Z,30.40
2022-09-13T07:14:26.175Z,30.39
2022-09-13T07:16:55.916Z,30.39
2022-09-13T07:19:27.583Z,30.40
2022-09-13T07:21:57.848Z,30.39
2022-09-13T07:24:26.813Z,30.39
2022-09-13T07:26:55.282Z,30.39
2022-09-13T07:29:24.845Z,30.40
2022-09-13T07:31:56.139Z,30.39
2022-09-13T07:34:27.065Z,30.39
2022-09-13T07:36:55.912Z,30.41
2022-09-13T07:39:25.288Z,30.41
2022-09-13T07:41:54.752Z,30.41
2022-09-13T07:44:23.897Z,30.48
2022-09-13T07:46:52.472Z,30.48
2022-09-13T07:49:21.499Z,30.47
2022-09-13T07:51:52.290Z,30.45
2022-09-13T07:54:21.758Z,30.48
2022-09-13T07:56:51.343Z,30.45
2022-09-13T07:59:20.672Z,30.47
2022-09-13T08:01:53.117Z,30.53
2022-09-13T08:04:25.957Z,30.51
2022-09-13T08:06:54.438Z,30.49
2022-09-13T08:09:23.234Z,30.50
2022-09-13T08:11:53.971Z,30.49
2022-09-13T08:14:24.297Z,30.50
2022-09-13T08:16:56.294Z,30.52
2022-09-13T08:19:24.802Z,30.55
2022-09-13T08:21:53.256Z,30.53
2022-09-13T08:24:23.169Z,30.58
2022-09-13T08:26:53.077Z,30.58
2022-09-13T08:29:21.713Z,30.62
2022-09-13T08:31:50.171Z,30.62
2022-09-13T08:34:19.265Z,30.61
2022-09-13T08:36:47.635Z,30.61
2022-09-13T08:39:16.203Z,30.59
2022-09-13T08:41:53.500Z,30.59
2022-09-13T08:44:43.385Z,30.57
2022-09-13T08:47:39.959Z,30.57
2022-09-13T08:50:20.706Z,30.52
2022-09-13T08:53:31.625Z,30.48
2022-09-13T08:56:19.357Z,30.46
2022-09-13T08:58:53.790Z,30.44
2022-09-13T09:01:55.449Z,30.42
2022-09-13T09:04:33.442Z,30.45
2022-09-13T09:07:04.998Z,30.43
2022-09-13T09:09:56.569Z,30.47
2022-09-13T09:12:33.863Z,30.47
2022-09-13T09:15:26.382Z,30.46
2022-09-13T09:18:16.312Z,30.46
2022-09-13T09:20:57.571Z,30.49
2022-09-13T09:23:47.607Z,30.50
2022-09-13T09:26:30.136Z,30.48
2022-09-13T09:29:00.868Z,30.45
2022-09-13T09:31:57.963Z,30.44
2022-09-13T09:34:53.203Z,30.47
2022-09-13T09:37:31.496Z,30.47
2022-09-13T09:40:08.962Z,30.48
2022-09-13T09:42:49.418Z,30.48
2022-09-13T09:45:37.240Z,30.45
2022-09-13T09:48:16.762Z,30.42
2022-09-13T09:50:59.516Z,30.40
2022-09-13T09:53:44.612Z,30.37
2022-09-13T09:56:34.879Z,30.34
2022-09-13T09:59:27.997Z,30.31
2022-09-13T10:02:06.580Z,30.29
2022-09-13T10:04:37.159Z,30.29
2022-09-13T10:07:27.480Z,30.26
2022-09-13T10:10:05.045Z,30.24
2022-09-13T10:12:40.793Z,30.19
2022-09-13T10:15:21.267Z,30.17
2022-09-13T10:18:16.794Z,30.11
2022-09-13T10:21:19.323Z,30.07
2022-09-13T10:23:51.842Z,30.03
2022-09-13T10:26:23.924Z,29.97
2022-09-13T10:29:07.592Z,29.93
2022-09-13T10:31:42.508Z,29.89
2022-09-13T10:34:36.564Z,29.85
2022-09-13T10:37:15.842Z,29.82
2022-09-13T10:40:25.658Z,29.77
2022-09-13T10:43:04.510Z,29.73
2022-09-13T10:45:33.835Z,29.69
2022-09-13T10:48:22.880Z,29.64
2022-09-13T10:51:16.195Z,29.60
2022-09-13T10:53:44.780Z,29.57
2022-09-13T10:56:27.879Z,29.52
2022-09-13T10:59:16.595Z,29.48
2022-09-13T11:02:15.926Z,29.44
2022-09-13T11:05:21.103Z,29.39
2022-09-13T11:08:13.965Z,29.36
2022-09-13T11:10:56.570Z,29.31
2022-09-13T11:13:50.930Z,29.29
2022-09-13T11:16:57.490Z,29.23
2022-09-13T11:20:00.796Z,29.19
2022-09-13T11:22:34.988Z,29.15
2022-09-13T11:25:23.475Z,29.11
2022-09-13T11:28:06.863Z,29.08
2022-09-13T11:31:03.336Z,29.04
2022-09-13T11:33:37.633Z,29.00
2022-09-13T11:36:34.990Z,28.95
2022-09-13T11:39:31.861Z,28.90
2022-09-13T11:42:22.087Z,28.82
2022-09-13T11:45:12.673Z,28.80
2022-09-13T11:48:09.094Z,28.75
2022-09-13T11:50:57.757Z,28.69
2022-09-13T11:53:44.666Z,28.65
2022-09-13T11:56:24.295Z,28.61
2022-09-13T11:59:03.828Z,28.56
2022-09-13T12:01:49.720Z,28.52
2022-09-13T12:04:38.981Z,28.48
2022-09-13T12:07:17.094Z,28.43
2022-09-13T12:10:07.357Z,28.38
2022-09-13T12:12:38.553Z,28.36
2022-09-13T12:15:35.266Z,28.31
2022-09-13T12:18:20.682Z,28.25
2022-09-13T12:20:55.882Z,28.22
2022-09-13T12:23:38.324Z,28.17
2022-09-13T12:26:15.556Z,28.13
2022-09-13T12:29:02.903Z,28.09
2022-09-13T12:31:33.169Z,28.06
2022-09-13T12:34:07.500Z,28.02
2022-09-13T12:36:52.749Z,27.99
2022-09-13T12:39:43.917Z,27.96
2022-09-13T12:42:44.574Z,27.93
2022-09-13T12:45:19.186Z,27.90
2022-09-13T12:48:14.893Z,27.86
2022-09-13T12:51:10.142Z,27.81
2022-09-13T12:53:56.957Z,27.78
2022-09-13T12:57:02.967Z,27.78
2022-09-13T12:59:43.845Z,27.78
2022-09-13T13:02:48.391Z,27.77
2022-09-13T13:05:33.021Z,27.78
2022-09-13T13:08:08.504Z,27.76
2022-09-13T13:10:39.895Z,27.74
2022-09-13T13:13:16.143Z,27.73
2022-09-13T13:15:49.321Z,27.74
2022-09-13T13:18:41.979Z,27.73
2022-09-13T13:21:31.157Z,27.72
2022-09-13T13:24:17.888Z,27.72
2022-09-13T13:26:55.640Z,27.70
2022-09-13T13:29:24.591Z,27.70
2022-09-13T13:32:00.232Z,27.69
2022-09-13T13:34:38.002Z,27.71
2022-09-13T13:37:32.937Z,27.70
2022-09-13T13:40:26.779Z,27.68
2022-09-13T13:43:34.796Z,27.65
2022-09-13T13:46:12.482Z,27.63
2022-09-13T13:48:43.411Z,27.62
2022-09-13T13:51:20.892Z,27.61
2022-09-13T13:54:01.973Z,27.60
2022-09-13T13:56:48.830Z,27.57
2022-09-13T13:59:34.237Z,27.54
2022-09-13T14:02:03.063Z,27.54
2022-09-13T14:05:15.657Z,27.53
2022-09-13T14:08:13.675Z,27.52
2022-09-13T14:11:15.486Z,27.50
2022-09-13T14:13:53.198Z,27.49
2022-09-13T14:16:59.923Z,27.47
2022-09-13T14:19:37.179Z,27.45
2022-09-13T14:22:17.106Z,27.46
2022-09-13T14:24:49.592Z,27.44
2022-09-13T14:27:31.054Z,27.43
2022-09-13T14:30:04.286Z,27.43
2022-09-13T14:32:45.076Z,27.42
2022-09-13T14:35:31.477Z,27.42
2022-09-13T14:38:22.622Z,27.42
2022-09-13T14:40:53.583Z,27.42
2022-09-13T14:43:28.036Z,27.40
2022-09-13T14:46:14.816Z,27.38
2022-09-13T14:48:55.094Z,27.38
2022-09-13T14:51:33.805Z,27.36
2022-09-13T14:54:17.263Z,27.36
2022-09-13T14:56:58.622Z,27.33
2022-09-13T14:59:47.717Z,27.32
2022-09-13T15:02:25.709Z,27.30
2022-09-13T15:05:01.952Z,27.29
2022-09-13T15:07:33.732Z,27.28
2022-09-13T15:10:24.611Z,27.26
2022-09-13T15:12:53.353Z,27.23
2022-09-13T15:15:27.397Z,27.20
2022-09-13T15:18:18.245Z,27.17
2022-09-13T15:21:02.684Z,27.16
2022-09-13T15:23:36.525Z,27.13
2022-09-13T15:26:09.221Z,27.12
2022-09-13T15:28:46.823Z,27.10
2022-09-13T15:31:30.222Z,27.06
2022-09-13T15:34:23.273Z,27.06
2022-09-13T15:37:15.851Z,27.03
2022-09-13T15:40:03.062Z,27.02
2022-09-13T15:42:31.632Z,27.00
2022-09-13T15:45:00.241Z,26.98
2022-09-13T15:47:28.746Z,26.97
2022-09-13T15:49:57.201Z,26.96
2022-09-13T15:52:25.745Z,26.96
2022-09-13T15:54:54.282Z,26.94
2022-09-13T15:57:30.825Z,26.94
2022-09-13T16:00:04.102Z,26.95
2022-09-13T16:02:37.046Z,26.94
2022-09-13T16:05:05.782Z,26.94
2022-09-13T16:07:34.204Z,26.92
2022-09-13T16:10:02.892Z,26.92
2022-09-13T16:12:31.422Z,26.90
2022-09-13T16:14:59.855Z,26.87
2022-09-13T16:17:29.393Z,26.86
2022-09-13T16:19:57.853Z,26.84
2022-09-13T16:22:26.368Z,26.82
2022-09-13T16:24:54.932Z,26.80
2022-09-13T16:27:23.411Z,26.77
2022-09-13T16:29:51.877Z,26.75
2022-09-13T16:32:21.083Z,26.75
2022-09-13T16:34:49.649Z,26.72
2022-09-13T16:37:21.483Z,26.71
2022-09-13T16:39:50.181Z,26.71
2022-09-13T16:42:19.275Z,26.70
2022-09-13T16:44:47.711Z,26.70
2022-09-13T16:47:16.149Z,26.70
2022-09-13T16:49:44.793Z,26.69
2022-09-13T16:52:13.223Z,26.69
2022-09-13T16:54:41.757Z,26.69
2022-09-13T16:57:11.495Z,26.68
2022-09-13T16:59:40.036Z,26.68
2022-09-13T17:02:12.291Z,26.68
2022-09-13T17:04:40.972Z,26.69
2022-09-13T17:07:09.580Z,26.69
2022-09-13T17:09:38.230Z,26.68
2022-09-13T17:12:07.016Z,26.67
2022-09-13T17:14:35.787Z,26.68
2022-09-13T17:17:05.546Z,26.67
2022-09-13T17:19:35.085Z,26.66
2022-09-13T17:22:07.127Z,26.65
2022-09-13T17:24:36.695Z,26.65
2022-09-13T17:27:07.985Z,26.64
2022-09-13T17:29:37.341Z,26.62
2022-09-13T17:32:07.097Z,26.62
2022-09-13T17:34:35.674Z,26.61
2022-09-13T17:37:04.693Z,26.61
2022-09-13T17:39:33.374Z,26.61
2022-09-13T17:42:02.091Z,26.62
2022-09-13T17:44:30.687Z,26.64
2022-09-13T17:46:59.163Z,26.64
2022-09-13T17:49:27.599Z,26.65
2022-09-13T17:51:56.111Z,26.67
2022-09-13T17:54:24.611Z,26.67
2022-09-13T17:56:53.139Z,26.67
2022-09-13T17:59:23.223Z,26.68
2022-09-13T18:01:54.950Z,26.69
2022-09-13T18:04:24.841Z,26.69
2022-09-13T18:06:54.784Z,26.71
2022-09-13T18:09:23.414Z,26.71
2022-09-13T18:11:52.641Z,26.71
2022-09-13T18:14:21.565Z,26.72
2022-09-13T18:16:56.418Z,26.72
2022-09-13T18:19:44.786Z,26.73
2022-09-13T18:22:13.881Z,26.72
2022-09-13T18:24:42.472Z,26.72
2022-09-13T18:27:10.965Z,26.73
2022-09-13T18:29:39.362Z,26.72
2022-09-13T18:32:08.131Z,26.72
2022-09-13T18:34:36.630Z,26.72
2022-09-13T18:37:05.135Z,26.72
2022-09-13T18:39:33.654Z,26.71
2022-09-13T18:42:02.228Z,26.70
2022-09-13T18:44:31.486Z,26.70
2022-09-13T18:47:01.632Z,26.69
2022-09-13T18:49:30.185Z,26.70
2022-09-13T18:51:58.651Z,26.69
2022-09-13T18:54:27.393Z,26.68
2022-09-13T18:56:56.813Z,26.67
2022-09-13T18:59:25.387Z,26.67
2022-09-13T19:01:53.983Z,26.66
2022-09-13T19:04:22.589Z,26.66
2022-09-13T19:06:57.115Z,26.65
2022-09-13T19:09:26.209Z,26.66
2022-09-13T19:11:55.734Z,26.66
2022-09-13T19:14:26.932Z,26.67
2022-09-13T19:16:58.023Z,26.67
2022-09-13T19:19:26.589Z,26.67
2022-09-13T19:21:55.080Z,26.67
2022-09-13T19:24:23.816Z,26.66
2022-09-13T19:26:53.856Z,26.66
2022-09-13T19:29:24.113Z,26.66
2022-09-13T19:31:54.119Z,26.66
2022-09-13T19:34:23.905Z,26.66
2022-09-13T19:36:58.653Z,26.66
2022-09-13T19:39:30.018Z,26.66
2022-09-13T19:42:00.829Z,26.66
2022-09-13T19:44:29.815Z,26.66
2022-09-13T19:47:36.159Z,26.65
2022-09-13T19:49:46.792Z,26.63
2022-09-13T19:52:15.210Z,26.62
2022-09-13T19:54:43.637Z,26.61
2022-09-13T19:57:12.213Z,26.61
2022-09-13T19:59:40.699Z,26.61
2022-09-13T20:02:12.004Z,26.62
2022-09-13T20:04:40.595Z,26.61
2022-09-13T20:07:13.133Z,26.62
2022-09-13T20:09:43.297Z,26.63
2022-09-13T20:12:12.566Z,26.63
2022-09-13T20:14:41.287Z,26.63
2022-09-13T20:17:09.752Z,26.62
2022-09-13T20:19:45.142Z,26.63
2022-09-13T20:22:17.834Z,26.62
2022-09-13T20:24:46.317Z,26.63
2022-09-13T20:27:14.693Z,26.63
2022-09-13T20:29:43.449Z,26.64
2022-09-13T20:32:12.346Z,26.65
2022-09-13T20:34:40.801Z,26.66
2022-09-13T20:37:09.257Z,26.67
2022-09-13T20:39:37.684Z,26.67
2022-09-13T20:42:06.360Z,26.69
2022-09-13T20:44:34.885Z,26.69
2022-09-13T20:47:03.431Z,26.69
2022-09-13T20:49:31.918Z,26.69
2022-09-13T20:52:01.021Z,26.69
2022-09-13T20:54:29.596Z,26.70
2022-09-13T20:56:59.184Z,26.69
2022-09-13T20:59:27.656Z,26.69
2022-09-13T21:01:56.328Z,26.68
2022-09-13T21:04:25.463Z,26.68
2022-09-13T21:07:14.662Z,26.67
2022-09-13T21:09:44.334Z,26.66
2022-09-13T21:12:12.991Z,26.64
2022-09-13T21:14:41.467Z,26.63
2022-09-13T21:17:10.133Z,26.62
2022-09-13T21:19:38.579Z,26.61
2022-09-13T21:22:07.273Z,26.60
2022-09-13T21:24:35.890Z,26.59
2022-09-13T21:27:04.981Z,26.58
2022-09-13T21:29:34.192Z,26.56
2022-09-13T21:32:02.951Z,26.54
2022-09-13T21:34:31.400Z,26.52
2022-09-13T21:36:59.790Z,26.51
2022-09-13T21:39:28.348Z,26.51
2022-09-13T21:41:57.602Z,26.50
2022-09-13T21:44:26.227Z,26.48
2022-09-13T21:46:54.863Z,26.48
2022-09-13T21:49:23.433Z,26.47
2022-09-13T21:51:55.247Z,26.46
2022-09-13T21:54:23.909Z,26.43
2022-09-13T21:56:55.941Z,26.40
2022-09-13T21:59:25.499Z,26.40
2022-09-13T22:01:55.303Z,26.40
2022-09-13T22:04:28.156Z,26.40
2022-09-13T22:06:57.393Z,26.39
2022-09-13T22:09:28.044Z,26.39
2022-09-13T22:11:57.599Z,26.38
2022-09-13T22:14:26.052Z,26.38
2022-09-13T22:16:54.745Z,26.38
2022-09-13T22:19:27.087Z,26.38
2022-09-13T22:21:59.914Z,26.38
2022-09-13T22:24:32.916Z,26.38
2022-09-13T22:27:02.066Z,26.38
2022-09-13T22:29:31.102Z,26.37
2022-09-13T22:31:59.655Z,26.37
2022-09-13T22:34:31.711Z,26.36
2022-09-13T22:37:01.098Z,26.37
2022-09-13T22:39:29.681Z,26.37
2022-09-13T22:41:58.269Z,26.36
2022-09-13T22:44:26.855Z,26.35
2022-09-13T22:46:55.680Z,26.36
2022-09-13T22:49:24.145Z,26.34
2022-09-13T22:51:52.633Z,26.33
2022-09-13T22:54:21.503Z,26.32
2022-09-13T22:56:50.115Z,26.32
2022-09-13T22:59:22.287Z,26.30
2022-09-13T23:01:50.972Z,26.30
2022-09-13T23:04:19.525Z,26.29
2022-09-13T23:06:48.297Z,26.29
2022-09-13T23:09:19.000Z,26.29
2022-09-13T23:11:48.768Z,26.31
2022-09-13T23:14:20.892Z,26.31
2022-09-13T23:16:52.283Z,26.31
2022-09-13T23:19:23.492Z,26.31
2022-09-13T23:21:53.838Z,26.32
2022-09-13T23:24:22.772Z,26.33
2022-09-13T23:26:51.568Z,26.34
2022-09-13T23:29:21.380Z,26.36
2022-09-13T23:31:50.770Z,26.39
2022-09-13T23:34:19.578Z,26.40
2022-09-13T23:36:48.142Z,26.43
2022-09-13T23:39:19.335Z,26.45
2022-09-13T23:41:49.801Z,26.48
2022-09-13T23:44:19.178Z,26.51
2022-09-13T23:46:47.653Z,26.53
2022-09-13T23:49:16.508Z,26.57
2022-09-13T23:51:45.391Z,26.59
2022-09-13T23:54:15.340Z,26.62
2022-09-13T23:56:44.276Z,26.65
2022-09-13T23:59:14.374Z,26.67
